sensor_id;sensor_type;location;lat;lon;timestamp;P1;durP1;ratioP1;P2;durP2;ratioP2
4325;SDS011;58429;49.826;10.880;2023-03-01T00:00:46;24;;;15.9;;
4325;SDS011;58429;49.826;10.880;2023-03-01T00:01:46;23.1;;;16;;
4325;SDS011;58429;49.826;10.880;2023-03-01T00:02:46;23.1;;;16;;
4325;SDS011;58429;49.826;10.880;2023-03-01T00:03:46;23.1;;;16;;
4325;SDS011;58429;49.826;10.880;2023-03-01T00:04:46;22.8;;;15.6;;
4325;SDS011;58429;49.826;10.880;2023-03-01T00:05:46;22.8;;;15.6;;
4325;SDS011;58429;49.826;10.880;2023-03-01T00:06:46;22.8;;;15.6;;
4325;SDS011;58429;49.826;10.880;2023-03-01T00:07:46;23.6;;;15.6;;
4325;SDS011;58429;49.826;10.880;2023-03-01T00:08:46;23.6;;;15.6;;
4325;SDS011;58429;49.826;10.880;2023-03-01T00:09:46;23.6;;;15.6;;
4325;SDS011;58429;49.826;10.880;2023-03-01T00:10:47;23.9;;;16.5;;
4325;SDS011;58429;49.826;10.880;2023-03-01T00:11:46;23.9;;;16.5;;
4325;SDS011;58429;49.826;10.880;2023-03-01T00:12:46;23.9;;;16.5;;
4325;SDS011;58429;49.826;10.880;2023-03-01T00:13:47;23.3;;;16.5;;
4325;SDS011;58429;49.826;10.880;2023-03-01T00:14:46;23.3;;;16.5;;
4325;SDS011;58429;49.826;10.880;2023-03-01T00:15:46;23.3;;;16.5;;
4325;SDS011;58429;49.826;10.880;2023-03-01T00:16:46;22;;;15;;
4325;SDS011;58429;49.826;10.880;2023-03-01T00:17:46;22;;;15;;
4325;SDS011;58429;49.826;10.880;2023-03-01T00:18:46;22;;;15;;
4325;SDS011;58429;49.826;10.880;2023-03-01T00:19:46;22.1;;;16.1;;
4325;SDS011;58429;49.826;10.880;2023-03-01T00:20:49;22.1;;;16.1;;
4325;SDS011;58429;49.826;10.880;2023-03-01T00:21:47;22.1;;;16.1;;
4325;SDS011;58429;49.826;10.880;2023-03-01T00:22:46;24;;;17.7;;
4325;SDS011;58429;49.826;10.880;2023-03-01T00:23:46;24;;;17.7;;
4325;SDS011;58429;49.826;10.880;2023-03-01T00:24:46;24;;;17.7;;
4325;SDS011;58429;49.826;10.880;2023-03-01T00:25:46;24;;;17.7;;
4325;SDS011;58429;49.826;10.880;2023-03-01T00:26:46;22.6;;;16.1;;
4325;SDS011;58429;49.826;10.880;2023-03-01T00:27:47;22.6;;;16.1;;
4325;SDS011;58429;49.826;10.880;2023-03-01T00:28:46;22.6;;;16.1;;
4325;SDS011;58429;49.826;10.880;2023-03-01T00:29:46;23.4;;;16.1;;
4325;SDS011;58429;49.826;10.880;2023-03-01T00:30:47;23.4;;;16.1;;
4325;SDS011;58429;49.826;10.880;2023-03-01T00:31:46;23.4;;;16.1;;
4325;SDS011;58429;49.826;10.880;2023-03-01T00:32:46;21.7;;;16.1;;
4325;SDS011;58429;49.826;10.880;2023-03-01T00:33:46;21.7;;;16.1;;
4325;SDS011;58429;49.826;10.880;2023-03-01T00:34:46;21.7;;;16.1;;
4325;SDS011;58429;49.826;10.880;2023-03-01T00:35:46;22.9;;;16.2;;
4325;SDS011;58429;49.826;10.880;2023-03-01T00:36:46;22.9;;;16.2;;
4325;SDS011;58429;49.826;10.880;2023-03-01T00:37:46;22.9;;;16.2;;
4325;SDS011;58429;49.826;10.880;2023-03-01T00:38:46;25;;;16.1;;
4325;SDS011;58429;49.826;10.880;2023-03-01T00:39:46;25;;;16.1;;
4325;SDS011;58429;49.826;10.880;2023-03-01T00:40:46;25;;;16.1;;
4325;SDS011;58429;49.826;10.880;2023-03-01T00:41:46;23.4;;;15.6;;
4325;SDS011;58429;49.826;10.880;2023-03-01T00:42:46;23.4;;;15.6;;
4325;SDS011;58429;49.826;10.880;2023-03-01T00:43:46;23.4;;;15.6;;
4325;SDS011;58429;49.826;10.880;2023-03-01T00:44:46;21.9;;;15.7;;
4325;SDS011;58429;49.826;10.880;2023-03-01T00:45:46;21.9;;;15.7;;
4325;SDS011;58429;49.826;10.880;2023-03-01T00:46:46;21.9;;;15.7;;
4325;SDS011;58429;49.826;10.880;2023-03-01T00:47:47;23.9;;;16.1;;
4325;SDS011;58429;49.826;10.880;2023-03-01T00:48:47;23.9;;;16.1;;
4325;SDS011;58429;49.826;10.880;2023-03-01T00:49:46;23.9;;;16.1;;
4325;SDS011;58429;49.826;10.880;2023-03-01T00:50:46;22.9;;;16;;
4325;SDS011;58429;49.826;10.880;2023-03-01T00:51:46;22.9;;;16;;
4325;SDS011;58429;49.826;10.880;2023-03-01T00:52:46;22.9;;;16;;
4325;SDS011;58429;49.826;10.880;2023-03-01T00:53:47;22.3;;;15.3;;
4325;SDS011;58429;49.826;10.880;2023-03-01T00:54:46;22.3;;;15.3;;
4325;SDS011;58429;49.826;10.880;2023-03-01T00:55:46;22.3;;;15.3;;
4325;SDS011;58429;49.826;10.880;2023-03-01T00:56:47;24.2;;;16.7;;
4325;SDS011;58429;49.826;10.880;2023-03-01T00:57:46;24.2;;;16.7;;
4325;SDS011;58429;49.826;10.880;2023-03-01T00:58:47;24.2;;;16.7;;
4325;SDS011;58429;49.826;10.880;2023-03-01T00:59:46;25.4;;;17.2;;
4325;SDS011;58429;49.826;10.880;2023-03-01T01:00:46;25.4;;;17.2;;
4325;SDS011;58429;49.826;10.880;2023-03-01T01:01:46;25.4;;;17.2;;
4325;SDS011;58429;49.826;10.880;2023-03-01T01:02:46;24.4;;;17.5;;
4325;SDS011;58429;49.826;10.880;2023-03-01T01:03:47;24.4;;;17.5;;
4325;SDS011;58429;49.826;10.880;2023-03-01T01:04:47;24.4;;;17.5;;
4325;SDS011;58429;49.826;10.880;2023-03-01T01:05:46;25.1;;;17.8;;
4325;SDS011;58429;49.826;10.880;2023-03-01T01:06:46;25.1;;;17.8;;
4325;SDS011;58429;49.826;10.880;2023-03-01T01:07:47;25.1;;;17.8;;
4325;SDS011;58429;49.826;10.880;2023-03-01T01:08:47;23.9;;;17.6;;
4325;SDS011;58429;49.826;10.880;2023-03-01T01:09:46;23.9;;;17.6;;
4325;SDS011;58429;49.826;10.880;2023-03-01T01:10:47;23.9;;;17.6;;
4325;SDS011;58429;49.826;10.880;2023-03-01T01:11:47;25.8;;;17.9;;
4325;SDS011;58429;49.826;10.880;2023-03-01T01:12:46;25.8;;;17.9;;
4325;SDS011;58429;49.826;10.880;2023-03-01T01:13:47;25.8;;;17.9;;
4325;SDS011;58429;49.826;10.880;2023-03-01T01:14:47;27.1;;;17.1;;
4325;SDS011;58429;49.826;10.880;2023-03-01T01:15:47;27.1;;;17.1;;
4325;SDS011;58429;49.826;10.880;2023-03-01T01:16:46;27.1;;;17.1;;
4325;SDS011;58429;49.826;10.880;2023-03-01T01:17:47;24.2;;;16.3;;
4325;SDS011;58429;49.826;10.880;2023-03-01T01:18:47;24.2;;;16.3;;
4325;SDS011;58429;49.826;10.880;2023-03-01T01:19:47;24.2;;;16.3;;
4325;SDS011;58429;49.826;10.880;2023-03-01T01:20:46;21.2;;;14.7;;
4325;SDS011;58429;49.826;10.880;2023-03-01T01:21:47;21.2;;;14.7;;
4325;SDS011;58429;49.826;10.880;2023-03-01T01:22:46;21.2;;;14.7;;
4325;SDS011;58429;49.826;10.880;2023-03-01T01:23:47;22.5;;;15.5;;
4325;SDS011;58429;49.826;10.880;2023-03-01T01:24:47;22.5;;;15.5;;
4325;SDS011;58429;49.826;10.880;2023-03-01T01:25:47;22.5;;;15.5;;
4325;SDS011;58429;49.826;10.880;2023-03-01T01:26:47;26.8;;;16.6;;
4325;SDS011;58429;49.826;10.880;2023-03-01T01:27:47;26.8;;;16.6;;
4325;SDS011;58429;49.826;10.880;2023-03-01T01:28:47;26.8;;;16.6;;
4325;SDS011;58429;49.826;10.880;2023-03-01T01:29:46;24.7;;;16.5;;
4325;SDS011;58429;49.826;10.880;2023-03-01T01:30:47;24.7;;;16.5;;
4325;SDS011;58429;49.826;10.880;2023-03-01T01:31:47;24.7;;;16.5;;
4325;SDS011;58429;49.826;10.880;2023-03-01T01:32:47;24.5;;;16.4;;
4325;SDS011;58429;49.826;10.880;2023-03-01T01:33:47;24.5;;;16.4;;
4325;SDS011;58429;49.826;10.880;2023-03-01T01:34:47;24.5;;;16.4;;
4325;SDS011;58429;49.826;10.880;2023-03-01T01:35:47;22.6;;;15.8;;
4325;SDS011;58429;49.826;10.880;2023-03-01T01:36:47;22.6;;;15.8;;
4325;SDS011;58429;49.826;10.880;2023-03-01T01:37:47;22.6;;;15.8;;
4325;SDS011;58429;49.826;10.880;2023-03-01T01:38:47;23.8;;;15.4;;
4325;SDS011;58429;49.826;10.880;2023-03-01T01:39:47;23.8;;;15.4;;
4325;SDS011;58429;49.826;10.880;2023-03-01T01:40:47;23.8;;;15.4;;
4325;SDS011;58429;49.826;10.880;2023-03-01T01:41:47;23.7;;;15.8;;
4325;SDS011;58429;49.826;10.880;2023-03-01T01:42:47;23.7;;;15.8;;
4325;SDS011;58429;49.826;10.880;2023-03-01T01:43:47;23.7;;;15.8;;
4325;SDS011;58429;49.826;10.880;2023-03-01T01:44:47;23.4;;;16.6;;
4325;SDS011;58429;49.826;10.880;2023-03-01T01:45:47;23.4;;;16.6;;
4325;SDS011;58429;49.826;10.880;2023-03-01T01:46:47;23.4;;;16.6;;
4325;SDS011;58429;49.826;10.880;2023-03-01T01:47:47;22.4;;;14.5;;
4325;SDS011;58429;49.826;10.880;2023-03-01T01:48:48;22.4;;;14.5;;
4325;SDS011;58429;49.826;10.880;2023-03-01T01:49:47;22.4;;;14.5;;
4325;SDS011;58429;49.826;10.880;2023-03-01T01:50:48;23.8;;;15;;
4325;SDS011;58429;49.826;10.880;2023-03-01T01:51:47;23.8;;;15;;
4325;SDS011;58429;49.826;10.880;2023-03-01T01:52:47;23.8;;;15;;
4325;SDS011;58429;49.826;10.880;2023-03-01T01:53:47;22.8;;;15.7;;
4325;SDS011;58429;49.826;10.880;2023-03-01T01:54:48;22.8;;;15.7;;
4325;SDS011;58429;49.826;10.880;2023-03-01T01:55:47;22.8;;;15.7;;
4325;SDS011;58429;49.826;10.880;2023-03-01T01:56:48;20.7;;;14.2;;
4325;SDS011;58429;49.826;10.880;2023-03-01T01:57:48;20.7;;;14.2;;
4325;SDS011;58429;49.826;10.880;2023-03-01T01:58:47;20.7;;;14.2;;
4325;SDS011;58429;49.826;10.880;2023-03-01T01:59:48;22.9;;;16.3;;
4325;SDS011;58429;49.826;10.880;2023-03-01T02:00:47;22.9;;;16.3;;
4325;SDS011;58429;49.826;10.880;2023-03-01T02:01:47;22.9;;;16.3;;
4325;SDS011;58429;49.826;10.880;2023-03-01T02:02:48;19.9;;;15;;
4325;SDS011;58429;49.826;10.880;2023-03-01T02:03:47;19.9;;;15;;
4325;SDS011;58429;49.826;10.880;2023-03-01T02:04:47;19.9;;;15;;
4325;SDS011;58429;49.826;10.880;2023-03-01T02:05:47;22.7;;;15;;
4325;SDS011;58429;49.826;10.880;2023-03-01T02:06:48;22.7;;;15;;
4325;SDS011;58429;49.826;10.880;2023-03-01T02:07:47;22.7;;;15;;
4325;SDS011;58429;49.826;10.880;2023-03-01T02:08:47;24.3;;;15.6;;
4325;SDS011;58429;49.826;10.880;2023-03-01T02:09:47;24.3;;;15.6;;
4325;SDS011;58429;49.826;10.880;2023-03-01T02:10:47;24.3;;;15.6;;
4325;SDS011;58429;49.826;10.880;2023-03-01T02:11:47;24.3;;;15.6;;
4325;SDS011;58429;49.826;10.880;2023-03-01T02:12:47;23.6;;;15.9;;
4325;SDS011;58429;49.826;10.880;2023-03-01T02:13:47;23.6;;;15.9;;
4325;SDS011;58429;49.826;10.880;2023-03-01T02:14:47;23.6;;;15.9;;
4325;SDS011;58429;49.826;10.880;2023-03-01T02:15:47;25.7;;;15.9;;
4325;SDS011;58429;49.826;10.880;2023-03-01T02:16:47;25.7;;;15.9;;
4325;SDS011;58429;49.826;10.880;2023-03-01T02:17:47;25.7;;;15.9;;
4325;SDS011;58429;49.826;10.880;2023-03-01T02:18:47;22.5;;;15.7;;
4325;SDS011;58429;49.826;10.880;2023-03-01T02:19:50;22.5;;;15.7;;
4325;SDS011;58429;49.826;10.880;2023-03-01T02:20:49;22.5;;;15.7;;
4325;SDS011;58429;49.826;10.880;2023-03-01T02:21:48;21.7;;;15.1;;
4325;SDS011;58429;49.826;10.880;2023-03-01T02:22:47;21.7;;;15.1;;
4325;SDS011;58429;49.826;10.880;2023-03-01T02:23:47;21.7;;;15.1;;
4325;SDS011;58429;49.826;10.880;2023-03-01T02:24:48;22.6;;;15.6;;
4325;SDS011;58429;49.826;10.880;2023-03-01T02:25:48;22.6;;;15.6;;
4325;SDS011;58429;49.826;10.880;2023-03-01T02:26:48;22.6;;;15.6;;
4325;SDS011;58429;49.826;10.880;2023-03-01T02:27:48;24.2;;;15.3;;
4325;SDS011;58429;49.826;10.880;2023-03-01T02:28:47;24.2;;;15.3;;
4325;SDS011;58429;49.826;10.880;2023-03-01T02:29:47;24.2;;;15.3;;
4325;SDS011;58429;49.826;10.880;2023-03-01T02:30:47;26.3;;;16.4;;
4325;SDS011;58429;49.826;10.880;2023-03-01T02:31:47;26.3;;;16.4;;
4325;SDS011;58429;49.826;10.880;2023-03-01T02:32:47;26.3;;;16.4;;
4325;SDS011;58429;49.826;10.880;2023-03-01T02:33:47;22.4;;;16;;
4325;SDS011;58429;49.826;10.880;2023-03-01T02:34:47;22.4;;;16;;
4325;SDS011;58429;49.826;10.880;2023-03-01T02:35:47;22.4;;;16;;
4325;SDS011;58429;49.826;10.880;2023-03-01T02:36:47;25.1;;;16;;
4325;SDS011;58429;49.826;10.880;2023-03-01T02:37:47;25.1;;;16;;
4325;SDS011;58429;49.826;10.880;2023-03-01T02:38:47;25.1;;;16;;
4325;SDS011;58429;49.826;10.880;2023-03-01T02:39:48;24.4;;;16.1;;
4325;SDS011;58429;49.826;10.880;2023-03-01T02:40:47;24.4;;;16.1;;
4325;SDS011;58429;49.826;10.880;2023-03-01T02:41:48;24.4;;;16.1;;
4325;SDS011;58429;49.826;10.880;2023-03-01T02:42:48;23.7;;;16.2;;
4325;SDS011;58429;49.826;10.880;2023-03-01T02:43:47;23.7;;;16.2;;
4325;SDS011;58429;49.826;10.880;2023-03-01T02:44:48;23.7;;;16.2;;
4325;SDS011;58429;49.826;10.880;2023-03-01T02:45:48;24.3;;;16.8;;
4325;SDS011;58429;49.826;10.880;2023-03-01T02:46:47;24.3;;;16.8;;
4325;SDS011;58429;49.826;10.880;2023-03-01T02:47:47;24.3;;;16.8;;
4325;SDS011;58429;49.826;10.880;2023-03-01T02:48:48;23.9;;;15.8;;
4325;SDS011;58429;49.826;10.880;2023-03-01T02:49:47;23.9;;;15.8;;
4325;SDS011;58429;49.826;10.880;2023-03-01T02:50:52;23.9;;;15.8;;
4325;SDS011;58429;49.826;10.880;2023-03-01T02:51:50;26.2;;;16.4;;
4325;SDS011;58429;49.826;10.880;2023-03-01T02:52:47;26.2;;;16.4;;
4325;SDS011;58429;49.826;10.880;2023-03-01T02:53:48;26.2;;;16.4;;
4325;SDS011;58429;49.826;10.880;2023-03-01T02:54:48;26.4;;;16;;
4325;SDS011;58429;49.826;10.880;2023-03-01T02:55:47;26.4;;;16;;
4325;SDS011;58429;49.826;10.880;2023-03-01T02:56:47;26.4;;;16;;
4325;SDS011;58429;49.826;10.880;2023-03-01T02:57:47;23.1;;;15.6;;
4325;SDS011;58429;49.826;10.880;2023-03-01T02:58:47;23.1;;;15.6;;
4325;SDS011;58429;49.826;10.880;2023-03-01T02:59:47;23.1;;;15.6;;
4325;SDS011;58429;49.826;10.880;2023-03-01T03:00:47;24.6;;;16.1;;
4325;SDS011;58429;49.826;10.880;2023-03-01T03:01:47;24.6;;;16.1;;
4325;SDS011;58429;49.826;10.880;2023-03-01T03:02:47;24.6;;;16.1;;
4325;SDS011;58429;49.826;10.880;2023-03-01T03:03:47;23.9;;;15.8;;
4325;SDS011;58429;49.826;10.880;2023-03-01T03:04:47;23.9;;;15.8;;
4325;SDS011;58429;49.826;10.880;2023-03-01T03:05:47;23.9;;;15.8;;
4325;SDS011;58429;49.826;10.880;2023-03-01T03:06:48;24.3;;;16.5;;
4325;SDS011;58429;49.826;10.880;2023-03-01T03:07:47;24.3;;;16.5;;
4325;SDS011;58429;49.826;10.880;2023-03-01T03:08:47;24.3;;;16.5;;
4325;SDS011;58429;49.826;10.880;2023-03-01T03:09:47;25.1;;;18.2;;
4325;SDS011;58429;49.826;10.880;2023-03-01T03:10:47;25.1;;;18.2;;
4325;SDS011;58429;49.826;10.880;2023-03-01T03:11:47;25.1;;;18.2;;
4325;SDS011;58429;49.826;10.880;2023-03-01T03:12:49;23.5;;;16.4;;
4325;SDS011;58429;49.826;10.880;2023-03-01T03:13:47;23.5;;;16.4;;
4325;SDS011;58429;49.826;10.880;2023-03-01T03:14:47;23.5;;;16.4;;
4325;SDS011;58429;49.826;10.880;2023-03-01T03:15:47;25.5;;;16.2;;
4325;SDS011;58429;49.826;10.880;2023-03-01T03:16:48;25.5;;;16.2;;
4325;SDS011;58429;49.826;10.880;2023-03-01T03:17:47;25.5;;;16.2;;
4325;SDS011;58429;49.826;10.880;2023-03-01T03:18:48;24.9;;;15.8;;
4325;SDS011;58429;49.826;10.880;2023-03-01T03:19:47;24.9;;;15.8;;
4325;SDS011;58429;49.826;10.880;2023-03-01T03:20:47;24.9;;;15.8;;
4325;SDS011;58429;49.826;10.880;2023-03-01T03:21:47;24.6;;;16.6;;
4325;SDS011;58429;49.826;10.880;2023-03-01T03:22:47;24.6;;;16.6;;
4325;SDS011;58429;49.826;10.880;2023-03-01T03:23:47;24.6;;;16.6;;
4325;SDS011;58429;49.826;10.880;2023-03-01T03:24:47;24;;;15.7;;
4325;SDS011;58429;49.826;10.880;2023-03-01T03:25:47;24;;;15.7;;
4325;SDS011;58429;49.826;10.880;2023-03-01T03:26:47;24;;;15.7;;
4325;SDS011;58429;49.826;10.880;2023-03-01T03:27:48;23.3;;;16.1;;
4325;SDS011;58429;49.826;10.880;2023-03-01T03:28:47;23.3;;;16.1;;
4325;SDS011;58429;49.826;10.880;2023-03-01T03:29:47;23.3;;;16.1;;
4325;SDS011;58429;49.826;10.880;2023-03-01T03:30:47;22.8;;;15.5;;
4325;SDS011;58429;49.826;10.880;2023-03-01T03:31:47;22.8;;;15.5;;
4325;SDS011;58429;49.826;10.880;2023-03-01T03:32:47;22.8;;;15.5;;
4325;SDS011;58429;49.826;10.880;2023-03-01T03:33:47;23.6;;;15.7;;
4325;SDS011;58429;49.826;10.880;2023-03-01T03:34:47;23.6;;;15.7;;
4325;SDS011;58429;49.826;10.880;2023-03-01T03:35:48;23.6;;;15.7;;
4325;SDS011;58429;49.826;10.880;2023-03-01T03:36:47;22.2;;;14.3;;
4325;SDS011;58429;49.826;10.880;2023-03-01T03:37:47;22.2;;;14.3;;
4325;SDS011;58429;49.826;10.880;2023-03-01T03:38:47;22.2;;;14.3;;
4325;SDS011;58429;49.826;10.880;2023-03-01T03:39:47;24.7;;;15.1;;
4325;SDS011;58429;49.826;10.880;2023-03-01T03:40:48;24.7;;;15.1;;
4325;SDS011;58429;49.826;10.880;2023-03-01T03:41:47;24.7;;;15.1;;
4325;SDS011;58429;49.826;10.880;2023-03-01T03:42:47;23.6;;;16.1;;
4325;SDS011;58429;49.826;10.880;2023-03-01T03:43:47;23.6;;;16.1;;
4325;SDS011;58429;49.826;10.880;2023-03-01T03:44:47;23.6;;;16.1;;
4325;SDS011;58429;49.826;10.880;2023-03-01T03:45:48;22.8;;;15.6;;
4325;SDS011;58429;49.826;10.880;2023-03-01T03:46:47;22.8;;;15.6;;
4325;SDS011;58429;49.826;10.880;2023-03-01T03:47:47;22.8;;;15.6;;
4325;SDS011;58429;49.826;10.880;2023-03-01T03:48:47;22;;;15;;
4325;SDS011;58429;49.826;10.880;2023-03-01T03:49:47;22;;;15;;
4325;SDS011;58429;49.826;10.880;2023-03-01T03:50:48;22;;;15;;
4325;SDS011;58429;49.826;10.880;2023-03-01T03:51:47;24.4;;;15.1;;
4325;SDS011;58429;49.826;10.880;2023-03-01T03:52:47;24.4;;;15.1;;
4325;SDS011;58429;49.826;10.880;2023-03-01T03:53:47;24.4;;;15.1;;
4325;SDS011;58429;49.826;10.880;2023-03-01T03:54:47;22.9;;;15.2;;
4325;SDS011;58429;49.826;10.880;2023-03-01T03:55:47;22.9;;;15.2;;
4325;SDS011;58429;49.826;10.880;2023-03-01T03:56:47;22.9;;;15.2;;
4325;SDS011;58429;49.826;10.880;2023-03-01T03:57:47;22.9;;;15.2;;
4325;SDS011;58429;49.826;10.880;2023-03-01T03:58:47;20.4;;;14.8;;
4325;SDS011;58429;49.826;10.880;2023-03-01T03:59:47;20.4;;;14.8;;
4325;SDS011;58429;49.826;10.880;2023-03-01T04:00:48;20.4;;;14.8;;
4325;SDS011;58429;49.826;10.880;2023-03-01T04:01:47;23.9;;;15.4;;
4325;SDS011;58429;49.826;10.880;2023-03-01T04:02:47;23.9;;;15.4;;
4325;SDS011;58429;49.826;10.880;2023-03-01T04:03:47;23.9;;;15.4;;
4325;SDS011;58429;49.826;10.880;2023-03-01T04:04:47;22.8;;;16.1;;
4325;SDS011;58429;49.826;10.880;2023-03-01T04:05:47;22.8;;;16.1;;
4325;SDS011;58429;49.826;10.880;2023-03-01T04:06:47;22.8;;;16.1;;
4325;SDS011;58429;49.826;10.880;2023-03-01T04:07:47;25;;;16;;
4325;SDS011;58429;49.826;10.880;2023-03-01T04:08:47;25;;;16;;
4325;SDS011;58429;49.826;10.880;2023-03-01T04:09:47;25;;;16;;
4325;SDS011;58429;49.826;10.880;2023-03-01T04:10:48;26;;;16.6;;
4325;SDS011;58429;49.826;10.880;2023-03-01T04:11:47;26;;;16.6;;
4325;SDS011;58429;49.826;10.880;2023-03-01T04:12:47;26;;;16.6;;
4325;SDS011;58429;49.826;10.880;2023-03-01T04:13:47;22.4;;;14.8;;
4325;SDS011;58429;49.826;10.880;2023-03-01T04:14:47;22.4;;;14.8;;
4325;SDS011;58429;49.826;10.880;2023-03-01T04:15:48;22.4;;;14.8;;
4325;SDS011;58429;49.826;10.880;2023-03-01T04:16:47;24.8;;;15.9;;
4325;SDS011;58429;49.826;10.880;2023-03-01T04:17:47;24.8;;;15.9;;
4325;SDS011;58429;49.826;10.880;2023-03-01T04:18:47;24.8;;;15.9;;
4325;SDS011;58429;49.826;10.880;2023-03-01T04:19:47;24.2;;;16.4;;
4325;SDS011;58429;49.826;10.880;2023-03-01T04:20:47;24.2;;;16.4;;
4325;SDS011;58429;49.826;10.880;2023-03-01T04:21:47;24.2;;;16.4;;
4325;SDS011;58429;49.826;10.880;2023-03-01T04:22:47;22.8;;;15;;
4325;SDS011;58429;49.826;10.880;2023-03-01T04:23:47;22.8;;;15;;
4325;SDS011;58429;49.826;10.880;2023-03-01T04:24:47;22.8;;;15;;
4325;SDS011;58429;49.826;10.880;2023-03-01T04:25:48;22.3;;;14.6;;
4325;SDS011;58429;49.826;10.880;2023-03-01T04:26:47;22.3;;;14.6;;
4325;SDS011;58429;49.826;10.880;2023-03-01T04:27:47;22.3;;;14.6;;
4325;SDS011;58429;49.826;10.880;2023-03-01T04:28:47;24;;;16.1;;
4325;SDS011;58429;49.826;10.880;2023-03-01T04:29:47;24;;;16.1;;
4325;SDS011;58429;49.826;10.880;2023-03-01T04:30:47;24;;;16.1;;
4325;SDS011;58429;49.826;10.880;2023-03-01T04:31:47;24.5;;;14.8;;
4325;SDS011;58429;49.826;10.880;2023-03-01T04:32:47;24.5;;;14.8;;
4325;SDS011;58429;49.826;10.880;2023-03-01T04:33:48;24.5;;;14.8;;
4325;SDS011;58429;49.826;10.880;2023-03-01T04:34:47;22.1;;;15.4;;
4325;SDS011;58429;49.826;10.880;2023-03-01T04:35:47;22.1;;;15.4;;
4325;SDS011;58429;49.826;10.880;2023-03-01T04:36:47;22.1;;;15.4;;
4325;SDS011;58429;49.826;10.880;2023-03-01T04:37:47;23;;;16.3;;
4325;SDS011;58429;49.826;10.880;2023-03-01T04:38:47;23;;;16.3;;
4325;SDS011;58429;49.826;10.880;2023-03-01T04:39:47;23;;;16.3;;
4325;SDS011;58429;49.826;10.880;2023-03-01T04:40:47;25.6;;;15.5;;
4325;SDS011;58429;49.826;10.880;2023-03-01T04:41:47;25.6;;;15.5;;
4325;SDS011;58429;49.826;10.880;2023-03-01T04:42:47;25.6;;;15.5;;
4325;SDS011;58429;49.826;10.880;2023-03-01T04:43:47;24.4;;;15.8;;
4325;SDS011;58429;49.826;10.880;2023-03-01T04:44:47;24.4;;;15.8;;
4325;SDS011;58429;49.826;10.880;2023-03-01T04:45:47;24.4;;;15.8;;
4325;SDS011;58429;49.826;10.880;2023-03-01T04:46:48;23.7;;;15.2;;
4325;SDS011;58429;49.826;10.880;2023-03-01T04:47:47;23.7;;;15.2;;
4325;SDS011;58429;49.826;10.880;2023-03-01T04:48:47;23.7;;;15.2;;
4325;SDS011;58429;49.826;10.880;2023-03-01T04:49:47;23.5;;;16.3;;
4325;SDS011;58429;49.826;10.880;2023-03-01T04:50:47;23.5;;;16.3;;
4325;SDS011;58429;49.826;10.880;2023-03-01T04:51:47;23.5;;;16.3;;
4325;SDS011;58429;49.826;10.880;2023-03-01T04:52:47;24.7;;;16.3;;
4325;SDS011;58429;49.826;10.880;2023-03-01T04:53:47;24.7;;;16.3;;
4325;SDS011;58429;49.826;10.880;2023-03-01T04:54:47;24.7;;;16.3;;
4325;SDS011;58429;49.826;10.880;2023-03-01T04:55:47;23.8;;;16;;
4325;SDS011;58429;49.826;10.880;2023-03-01T04:56:47;23.8;;;16;;
4325;SDS011;58429;49.826;10.880;2023-03-01T04:57:47;23.8;;;16;;
4325;SDS011;58429;49.826;10.880;2023-03-01T04:58:47;23.5;;;15.2;;
4325;SDS011;58429;49.826;10.880;2023-03-01T04:59:47;23.5;;;15.2;;
4325;SDS011;58429;49.826;10.880;2023-03-01T05:00:47;23.5;;;15.2;;
4325;SDS011;58429;49.826;10.880;2023-03-01T05:01:47;26;;;16.3;;
4325;SDS011;58429;49.826;10.880;2023-03-01T05:02:48;26;;;16.3;;
4325;SDS011;58429;49.826;10.880;2023-03-01T05:03:48;26;;;16.3;;
4325;SDS011;58429;49.826;10.880;2023-03-01T05:04:47;26.7;;;16.5;;
4325;SDS011;58429;49.826;10.880;2023-03-01T05:05:48;26.7;;;16.5;;
4325;SDS011;58429;49.826;10.880;2023-03-01T05:06:47;26.7;;;16.5;;
4325;SDS011;58429;49.826;10.880;2023-03-01T05:07:47;24.5;;;16;;
4325;SDS011;58429;49.826;10.880;2023-03-01T05:08:47;24.5;;;16;;
4325;SDS011;58429;49.826;10.880;2023-03-01T05:09:47;24.5;;;16;;
4325;SDS011;58429;49.826;10.880;2023-03-01T05:10:48;25.1;;;16.9;;
4325;SDS011;58429;49.826;10.880;2023-03-01T05:11:47;25.1;;;16.9;;
4325;SDS011;58429;49.826;10.880;2023-03-01T05:12:47;25.1;;;16.9;;
4325;SDS011;58429;49.826;10.880;2023-03-01T05:13:47;25;;;16.4;;
4325;SDS011;58429;49.826;10.880;2023-03-01T05:14:47;25;;;16.4;;
4325;SDS011;58429;49.826;10.880;2023-03-01T05:15:48;25;;;16.4;;
4325;SDS011;58429;49.826;10.880;2023-03-01T05:16:47;26.5;;;16.5;;
4325;SDS011;58429;49.826;10.880;2023-03-01T05:17:47;26.5;;;16.5;;
4325;SDS011;58429;49.826;10.880;2023-03-01T05:18:47;26.5;;;16.5;;
4325;SDS011;58429;49.826;10.880;2023-03-01T05:19:47;30.9;;;18.6;;
4325;SDS011;58429;49.826;10.880;2023-03-01T05:20:47;30.9;;;18.6;;
4325;SDS011;58429;49.826;10.880;2023-03-01T05:21:47;30.9;;;18.6;;
4325;SDS011;58429;49.826;10.880;2023-03-01T05:22:47;28.2;;;17.2;;
4325;SDS011;58429;49.826;10.880;2023-03-01T05:23:47;28.2;;;17.2;;
4325;SDS011;58429;49.826;10.880;2023-03-01T05:24:47;28.2;;;17.2;;
4325;SDS011;58429;49.826;10.880;2023-03-01T05:25:47;26.8;;;16.4;;
4325;SDS011;58429;49.826;10.880;2023-03-01T05:26:47;26.8;;;16.4;;
4325;SDS011;58429;49.826;10.880;2023-03-01T05:27:47;26.8;;;16.4;;
4325;SDS011;58429;49.826;10.880;2023-03-01T05:28:47;27.5;;;18.1;;
4325;SDS011;58429;49.826;10.880;2023-03-01T05:29:47;27.5;;;18.1;;
4325;SDS011;58429;49.826;10.880;2023-03-01T05:30:47;27.5;;;18.1;;
4325;SDS011;58429;49.826;10.880;2023-03-01T05:31:47;29.1;;;17.6;;
4325;SDS011;58429;49.826;10.880;2023-03-01T05:32:48;29.1;;;17.6;;
4325;SDS011;58429;49.826;10.880;2023-03-01T05:33:47;29.1;;;17.6;;
4325;SDS011;58429;49.826;10.880;2023-03-01T05:34:47;30.3;;;17;;
4325;SDS011;58429;49.826;10.880;2023-03-01T05:35:47;30.3;;;17;;
4325;SDS011;58429;49.826;10.880;2023-03-01T05:36:47;30.3;;;17;;
4325;SDS011;58429;49.826;10.880;2023-03-01T05:37:48;29.2;;;17.3;;
4325;SDS011;58429;49.826;10.880;2023-03-01T05:38:47;29.2;;;17.3;;
4325;SDS011;58429;49.826;10.880;2023-03-01T05:39:47;29.2;;;17.3;;
4325;SDS011;58429;49.826;10.880;2023-03-01T05:40:48;29.2;;;17.3;;
4325;SDS011;58429;49.826;10.880;2023-03-01T05:41:48;25.5;;;17.7;;
4325;SDS011;58429;49.826;10.880;2023-03-01T05:42:48;25.5;;;17.7;;
4325;SDS011;58429;49.826;10.880;2023-03-01T05:43:47;25.5;;;17.7;;
4325;SDS011;58429;49.826;10.880;2023-03-01T05:44:47;26.2;;;17.4;;
4325;SDS011;58429;49.826;10.880;2023-03-01T05:45:47;26.2;;;17.4;;
4325;SDS011;58429;49.826;10.880;2023-03-01T05:46:47;26.2;;;17.4;;
4325;SDS011;58429;49.826;10.880;2023-03-01T05:47:48;25.6;;;18.2;;
4325;SDS011;58429;49.826;10.880;2023-03-01T05:48:47;25.6;;;18.2;;
4325;SDS011;58429;49.826;10.880;2023-03-01T05:49:47;25.6;;;18.2;;
4325;SDS011;58429;49.826;10.880;2023-03-01T05:50:47;28.1;;;18;;
4325;SDS011;58429;49.826;10.880;2023-03-01T05:51:48;28.1;;;18;;
4325;SDS011;58429;49.826;10.880;2023-03-01T05:52:48;28.1;;;18;;
4325;SDS011;58429;49.826;10.880;2023-03-01T05:53:47;28.7;;;17.8;;
4325;SDS011;58429;49.826;10.880;2023-03-01T05:54:47;28.7;;;17.8;;
4325;SDS011;58429;49.826;10.880;2023-03-01T05:55:48;28.7;;;17.8;;
4325;SDS011;58429;49.826;10.880;2023-03-01T05:56:48;27;;;17.8;;
4325;SDS011;58429;49.826;10.880;2023-03-01T05:57:47;27;;;17.8;;
4325;SDS011;58429;49.826;10.880;2023-03-01T05:58:47;27;;;17.8;;
4325;SDS011;58429;49.826;10.880;2023-03-01T05:59:47;27.2;;;16.5;;
4325;SDS011;58429;49.826;10.880;2023-03-01T06:00:48;27.2;;;16.5;;
4325;SDS011;58429;49.826;10.880;2023-03-01T06:01:47;27.2;;;16.5;;
4325;SDS011;58429;49.826;10.880;2023-03-01T06:02:47;26;;;17.1;;
4325;SDS011;58429;49.826;10.880;2023-03-01T06:03:47;26;;;17.1;;
4325;SDS011;58429;49.826;10.880;2023-03-01T06:04:47;26;;;17.1;;